Hattiesburg South, Mississippi
Current Conditions -  °F | °C
As of 8:53 AM on Monday 22 Dec 2014 (Local Time) from KHBG Reporting Station
Haze Haze  
Wind Chill: 56°   Ceiling: 200
Heat Index: 56°   Visibility: 0.75mi
Dew Point: 56°   Wind: 5mph
Humidity: 100%   Direction: 120°ESE
Pressure: 29.87"   Gusts: NA
Location:  31.1996°N, 89.2694°W
Report Text: KHBG 221453Z AUTO 12004KT 3/4SM BR VV002 13/13 A2987 RMK AO2 SLP112 T01330133 56006
Loading
Personal Weather Stations






























Interactive Weather Map New forecast layout! Learn more

10-Day Weather Forecast

Advertisements
Track Severe Weather on mobile